Terminal Aerodrome Forecast
Issued by NWS

Home | Current Version | Previous Version | Text Only | Print | Product List | Glossary On
Versions: 1 2 3 4 5 6 7 8 9 10 11 12 13 14 15 16 17 18 19 20 21 22 23 24 25 26 27 28 29 30 31
965
FTUS46 KMTR 161739
TAFSFO
TAF
KSFO 161739Z 1618/1724 13005KT P6SM FEW010 SCT020
     FM162100 31007KT P6SM FEW015
     FM162300 28012KT P6SM FEW015
     FM170400 28008KT P6SM FEW010
     FM170700 29007KT P6SM SCT012
     FM170900 26006KT P6SM BKN011
     FM171600 34006KT P6SM SCT012
     FM172100 30012KT P6SM FEW012=

USA.gov is the U.S. government's official web portal to all federal, state and local government web resources and services.